Time;durP1;ratioP1;P1;durP2;ratioP2;P2;SDS_P1;SDS_P2;PMS_P1;PMS_P2;Temp;Humidity;BMP_temperature;BMP_pressure;BME280_temperature;BME280_humidity;BME280_pressure;Samples;Min_cycle;Max_cycle;Signal;HPM_P1;HPM_P2
2022/04/15 16:26:27;;;;;;;1.97;0.70;;;;;;;17.71;29.75;99196.16;1792671;78;25938;-53
2022/04/15 16:28:53;;;;;;;5.85;0.90;;;;;;;17.61;29.21;99199.27;1768937;79;20958;-54
2022/04/15 16:31:20;;;;;;;12.03;1.20;;;;;;;17.57;29.31;99204.62;1776127;79;21381;-54
2022/04/15 16:33:46;;;;;;;4.08;1.00;;;;;;;17.54;29.49;99202.16;1765468;79;21021;-54
2022/04/15 16:36:13;;;;;;;3.83;0.80;;;;;;;17.50;29.53;99204.79;1774004;79;21100;-54
2022/04/15 16:38:40;;;;;;;9.78;1.00;;;;;;;17.47;29.71;99205.04;1769771;79;21488;-54
2022/04/15 16:41:06;;;;;;;4.40;1.55;;;;;;;17.44;29.86;99207.52;1769304;79;21656;-54
2022/04/15 16:43:34;;;;;;;4.35;1.12;;;;;;;17.41;29.89;99203.72;1771877;79;21602;-53
2022/04/15 16:46:00;;;;;;;3.60;2.60;;;;;;;17.38;29.97;99201.24;1770912;79;20997;-53
2022/04/15 16:48:28;;;;;;;8.38;4.35;;;;;;;17.35;29.81;99196.09;1772031;79;21020;-54
2022/04/15 16:50:55;;;;;;;7.47;3.35;;;;;;;17.32;29.88;99199.92;1772430;79;20958;-54
2022/04/15 16:53:21;;;;;;;2.90;1.30;;;;;;;17.28;29.92;99199.80;1769138;79;20946;-54
2022/04/15 16:58:40;;;;;;;2.10;1.10;;;;;;;17.24;29.95;99198.34;1748270;79;20948;-54
2022/04/15 17:01:12;;;;;;;4.33;1.32;;;;;;;17.20;30.10;99195.50;1745223;80;21048;-54
2022/04/15 17:03:39;;;;;;;20.30;2.15;;;;;;;17.16;30.15;99195.90;1744133;81;21072;-54
2022/04/15 17:06:06;;;;;;;12.43;1.22;;;;;;;17.12;30.50;99197.13;1740803;80;21540;-53
2022/04/15 17:08:32;;;;;;;3.22;1.30;;;;;;;17.09;30.40;99205.56;1744417;80;21147;-53
2022/04/15 17:11:00;;;;;;;7.37;1.20;;;;;;;17.03;30.62;99206.43;1746686;81;20922;-53
2022/04/15 17:13:29;;;;;;;3.33;1.20;;;;;;;16.97;30.54;99205.59;1747503;81;20994;-53
2022/04/15 17:16:00;;;;;;;10.72;1.82;;;;;;;16.93;30.71;99202.74;1744089;81;20997;-53
2022/04/15 17:18:28;;;;;;;3.37;1.47;;;;;;;16.89;30.82;99209.44;1736915;81;21566;-53
2022/04/15 17:20:55;;;;;;;4.00;1.20;;;;;;;16.84;31.11;99207.58;1744458;81;21109;-54
2022/04/15 17:23:23;;;;;;;3.10;1.40;;;;;;;16.79;31.33;99209.83;1712807;82;20926;-53
2022/04/15 17:25:52;;;;;;;3.77;1.30;;;;;;;16.75;31.27;99209.72;1701741;82;20955;-53
2022/04/15 17:28:20;;;;;;;5.75;1.60;;;;;;;16.71;31.18;99211.44;1726296;81;21443;-53
2022/04/15 17:30:52;;;;;;;10.25;1.67;;;;;;;16.67;31.35;99200.47;1734654;81;20895;-53
2022/04/15 17:33:16;;;;;;;8.55;1.50;;;;;;;16.63;31.32;99208.86;1676941;83;21322;-53
2022/04/15 17:35:44;;;;;;;2.83;1.17;;;;;;;16.60;31.39;99209.56;1731379;81;21411;-53
2022/04/15 17:38:17;;;;;;;3.37;1.27;;;;;;;16.57;31.45;99209.34;1732443;81;20954;-53
2022/04/15 17:40:44;;;;;;;3.02;1.40;;;;;;;16.54;31.55;99211.42;1733439;80;21034;-53
2022/04/15 17:43:10;;;;;;;2.98;1.87;;;;;;;16.52;31.51;99214.75;1729982;81;21330;-53
2022/04/15 17:45:38;;;;;;;5.40;1.65;;;;;;;16.48;31.63;99212.80;1729877;80;21128;-53
2022/04/15 17:48:05;;;;;;;6.42;2.10;;;;;;;16.47;31.73;99215.63;1734929;81;20933;-52
2022/04/15 17:50:31;;;;;;;3.92;1.67;;;;;;;16.44;31.83;99211.80;1693532;83;21071;-52
2022/04/15 17:52:58;;;;;;;4.03;1.90;;;;;;;16.42;31.92;99216.48;1727843;80;21038;-52
2022/04/15 17:55:24;;;;;;;5.03;1.70;;;;;;;16.38;31.99;99210.45;1726673;80;21050;-53
2022/04/15 17:57:51;;;;;;;4.47;1.50;;;;;;;16.35;31.98;99209.81;1731508;80;21500;-53
2022/04/15 18:00:17;;;;;;;7.58;1.50;;;;;;;16.32;32.22;99208.23;1729823;81;21054;-53
2022/04/15 18:02:45;;;;;;;7.55;1.57;;;;;;;16.27;32.28;99200.93;1695171;83;20951;-52
2022/04/15 18:05:11;;;;;;;8.45;2.95;;;;;;;16.23;32.43;99199.47;1730057;81;20920;-53
2022/04/15 18:07:39;;;;;;;3.70;1.42;;;;;;;16.18;32.43;99195.74;1731103;80;20962;-52
2022/04/15 18:10:08;;;;;;;5.37;1.60;;;;;;;16.14;32.57;99201.55;1732258;80;20876;-53
2022/04/15 18:12:36;;;;;;;5.87;1.75;;;;;;;16.10;32.62;99198.70;1733764;81;21326;-53
2022/04/15 18:15:03;;;;;;;6.72;1.67;;;;;;;16.03;32.70;99198.81;1734548;81;20910;-53
2022/04/15 18:17:31;;;;;;;3.77;1.60;;;;;;;15.99;32.79;99194.63;1729361;81;20909;-53
2022/04/15 18:19:59;;;;;;;7.90;2.05;;;;;;;15.95;32.89;99194.00;1731896;81;21013;-52
2022/04/15 18:22:25;;;;;;;3.83;1.82;;;;;;;15.92;32.97;99196.08;1735689;81;21933;-53
2022/04/15 18:24:53;;;;;;;5.92;1.62;;;;;;;15.88;33.09;99193.63;1730788;81;20962;-53
2022/04/15 18:27:20;;;;;;;5.35;1.30;;;;;;;15.85;33.13;99186.20;1735136;80;20963;-53
2022/04/15 18:29:48;;;;;;;6.28;1.77;;;;;;;15.82;33.29;99182.40;1729398;80;20910;-53
2022/04/15 18:32:19;;;;;;;8.35;1.40;;;;;;;15.78;33.41;99183.11;1728597;80;20939;-53
2022/04/15 18:34:43;;;;;;;5.55;2.08;;;;;;;15.74;33.45;99188.39;1731532;80;21976;-53
2022/04/15 18:37:09;;;;;;;2.98;1.75;;;;;;;15.72;33.51;99182.25;1729616;80;20903;-52
2022/04/15 18:39:36;;;;;;;9.03;2.12;;;;;;;15.70;33.64;99183.34;1731392;81;20915;-53
2022/04/15 18:42:03;;;;;;;9.98;2.10;;;;;;;15.67;33.69;99185.80;1726836;81;20915;-53
2022/04/15 18:44:30;;;;;;;4.53;1.80;;;;;;;15.64;33.96;99181.98;1717452;81;20982;-53
2022/04/15 18:46:56;;;;;;;8.50;1.98;;;;;;;15.55;34.15;99172.34;1728338;80;21910;-53
2022/04/15 18:54:54;;;;;;;;;;;;;;;15.48;34.30;99171.40;1734771;80;21112;-53
2022/04/15 18:57:21;;;;;;;5.85;1.30;;;;;;;15.40;34.93;99180.63;1724489;81;20217;-53
2022/04/15 18:59:49;;;;;;;5.47;1.47;;;;;;;15.40;34.93;99180.63;1736386;81;21030;-53
2022/04/15 19:02:16;;;;;;;3.42;1.20;;;;;;;15.33;34.81;99174.44;1729555;81;21038;-53
2022/04/15 19:04:43;;;;;;;3.27;1.22;;;;;;;15.33;34.81;99174.44;1729851;81;21467;-53
2022/04/15 19:07:11;;;;;;;4.62;1.57;;;;;;;15.29;34.91;99177.89;1730548;81;21048;-53
2022/04/15 19:09:38;;;;;;;7.80;1.67;;;;;;;15.28;35.05;99176.16;1694909;82;21121;-53
2022/04/15 19:12:07;;;;;;;2.87;1.12;;;;;;;15.23;35.01;99181.05;1732507;80;21524;-53
2022/04/15 19:14:34;;;;;;;4.67;2.17;;;;;;;15.23;35.01;99181.05;1732865;81;20880;-53
2022/04/15 19:17:02;;;;;;;2.85;1.20;;;;;;;15.20;35.14;99181.79;1728390;81;20957;-53
2022/04/15 19:19:29;;;;;;;3.42;1.15;;;;;;;15.20;35.14;99181.79;1732604;80;20922;-52
2022/04/15 19:21:56;;;;;;;2.50;1.22;;;;;;;15.17;35.02;99182.88;1729007;81;21038;-53
2022/04/15 19:24:22;;;;;;;3.45;1.20;;;;;;;15.15;34.92;99177.56;1727143;80;21266;-53
2022/04/15 19:26:51;;;;;;;3.37;1.52;;;;;;;15.14;34.73;99178.55;1733907;80;20987;-52
2022/04/15 19:29:17;;;;;;;6.60;2.17;;;;;;;15.10;34.78;99171.64;1737147;80;21601;-53
2022/04/15 19:31:43;;;;;;;7.30;1.67;;;;;;;15.12;34.52;99176.95;1735472;81;21631;-53
2022/04/15 19:34:10;;;;;;;3.15;1.20;;;;;;;15.11;34.36;99181.52;1734917;80;21085;-53
2022/04/15 19:36:37;;;;;;;5.30;1.75;;;;;;;15.11;34.41;99182.86;1736779;80;21830;-53
2022/04/15 19:39:03;;;;;;;6.42;1.62;;;;;;;15.09;34.36;99186.17;1736979;80;21129;-53
2022/04/15 19:41:31;;;;;;;8.95;2.15;;;;;;;15.08;34.43;99176.31;1695177;82;21716;-53
2022/04/15 19:43:57;;;;;;;4.58;1.65;;;;;;;15.07;34.32;99181.84;1740263;80;21435;-53
2022/04/15 19:46:24;;;;;;;5.35;1.57;;;;;;;15.05;34.39;99185.18;1741432;81;21097;-53
2022/04/15 19:48:52;;;;;;;4.58;2.42;;;;;;;15.01;34.42;99182.31;1735247;81;21780;-53
2022/04/15 19:51:18;;;;;;;4.83;2.62;;;;;;;15.01;34.42;99182.31;1732458;81;20930;-52
2022/04/15 19:53:46;;;;;;;5.10;2.02;;;;;;;15.00;34.49;99176.52;1740439;81;20982;-53
2022/04/15 20:01:43;;;;;;;6.20;2.65;;;;;;;14.93;34.98;99189.67;1697131;83;21752;-53
2022/04/15 20:04:10;;;;;;;10.45;2.85;;;;;;;14.91;35.16;99190.27;1736779;81;21015;-54
2022/04/15 20:06:37;;;;;;;6.62;2.92;;;;;;;14.88;35.35;99185.09;1737226;80;21073;-53
2022/04/15 20:09:05;;;;;;;13.03;4.22;;;;;;;14.87;35.54;99190.63;1736255;81;21093;-53
2022/04/15 20:11:33;;;;;;;6.25;2.65;;;;;;;14.81;36.28;99189.21;1736651;81;21455;-53
2022/04/15 20:14:02;;;;;;;11.12;4.00;;;;;;;14.81;36.28;99189.21;1738611;81;21376;-53
2022/04/15 20:16:30;;;;;;;10.38;4.60;;;;;;;14.79;36.48;99189.84;1737825;81;21388;-53
2022/04/15 20:18:58;;;;;;;6.42;3.10;;;;;;;14.75;36.90;99188.33;1737586;81;22283;-53
2022/04/15 20:21:26;;;;;;;6.92;4.42;;;;;;;14.72;37.17;99192.60;1696421;82;21645;-53
2022/04/15 20:23:53;;;;;;;6.97;4.33;;;;;;;14.67;38.38;99194.31;1739491;81;21986;-53
2022/04/15 20:26:20;;;;;;;12.05;5.00;;;;;;;14.63;39.37;99196.02;1722585;80;21677;-54
2022/04/15 20:28:46;;;;;;;9.00;4.25;;;;;;;14.59;40.30;99194.02;1705918;82;21054;-53
2022/04/15 20:31:13;;;;;;;7.85;4.45;;;;;;;14.57;40.79;99196.45;1703831;82;21046;-53
2022/04/15 20:33:39;;;;;;;8.08;5.53;;;;;;;14.54;41.22;99188.08;1708355;82;21184;-54
2022/04/15 20:36:06;;;;;;;9.70;4.58;;;;;;;14.53;41.70;99195.83;1706263;82;21093;-54
2022/04/15 20:38:33;;;;;;;12.30;5.37;;;;;;;14.50;42.02;99201.94;1671008;83;22057;-54
2022/04/15 20:41:00;;;;;;;13.48;4.92;;;;;;;14.48;42.51;99208.81;1628443;86;21344;-54
2022/04/15 20:43:27;;;;;;;9.75;5.72;;;;;;;14.44;42.83;99215.45;1674560;83;21101;-54
2022/04/15 20:45:55;;;;;;;7.08;4.42;;;;;;;14.42;43.16;99221.45;1647978;86;21088;-55
2022/04/15 20:51:11;;;;;;;;;;;;;;;14.34;43.84;99217.05;1650241;86;22301;-55
2022/04/15 20:53:36;;;;;;;8.10;4.90;;;;;;;14.32;44.31;99221.22;1649759;86;20241;-54
2022/04/15 20:56:04;;;;;;;5.70;4.15;;;;;;;14.27;44.66;99226.11;1648815;86;21616;-54
2022/04/15 20:58:31;;;;;;;14.00;4.58;;;;;;;14.24;44.85;99230.38;1646998;86;21110;-54
2022/04/15 21:00:57;;;;;;;11.73;5.12;;;;;;;14.21;45.28;99229.71;1650885;86;21170;-54
2022/04/15 21:03:24;;;;;;;6.87;4.33;;;;;;;14.17;45.53;99229.08;1647591;86;23039;-54
2022/04/15 21:05:52;;;;;;;10.68;4.92;;;;;;;14.15;45.74;99225.61;1651897;86;21488;-54
2022/04/15 21:08:18;;;;;;;12.55;5.40;;;;;;;14.12;46.04;99213.64;1645918;86;21062;-54
2022/04/15 21:10:45;;;;;;;9.18;5.55;;;;;;;14.09;46.31;99218.42;1646715;86;21093;-55
2022/04/15 21:13:11;;;;;;;9.68;5.42;;;;;;;14.06;46.60;99216.79;1649306;86;21058;-55
2022/04/15 21:15:40;;;;;;;7.65;5.33;;;;;;;14.03;46.78;99217.03;1648282;86;21111;-55
2022/04/15 21:18:06;;;;;;;9.35;5.22;;;;;;;14.00;47.03;99218.59;1646471;86;21461;-55
2022/04/15 21:20:34;;;;;;;8.55;5.50;;;;;;;13.95;47.22;99209.42;1651806;85;21079;-55
2022/04/15 21:23:01;;;;;;;9.15;5.55;;;;;;;13.92;47.33;99208.31;1674935;83;21392;-54
2022/04/15 21:25:27;;;;;;;10.53;5.35;;;;;;;13.91;47.49;99213.34;1629508;86;21411;-54
2022/04/15 21:27:54;;;;;;;12.55;5.83;;;;;;;13.89;47.66;99209.00;1685306;83;21665;-55
2022/04/15 21:30:21;;;;;;;8.88;4.80;;;;;;;13.87;47.93;99214.51;1687109;83;21029;-54
2022/04/15 21:32:49;;;;;;;7.97;4.75;;;;;;;13.84;48.07;99215.23;1686242;83;20956;-55
2022/04/15 21:35:15;;;;;;;10.48;5.37;;;;;;;13.81;48.43;99219.01;1687372;83;21432;-54
2022/04/15 21:37:41;;;;;;;10.53;5.85;;;;;;;13.77;48.58;99218.86;1686181;83;20995;-55
2022/04/15 21:40:09;;;;;;;13.22;5.50;;;;;;;13.73;48.80;99209.70;1730725;81;21602;-54
2022/04/15 21:42:35;;;;;;;14.58;6.75;;;;;;;13.68;48.93;99206.45;1729837;80;21010;-56
2022/04/15 21:45:03;;;;;;;11.43;4.80;;;;;;;13.64;49.23;99209.36;1732502;81;21464;-54
2022/04/15 21:47:30;;;;;;;8.90;5.62;;;;;;;13.60;49.35;99215.11;1729574;80;20903;-54
2022/04/15 21:49:57;;;;;;;8.23;5.22;;;;;;;13.54;49.65;99217.72;1696143;83;21384;-54
2022/04/15 21:52:33;;;;;;;15.50;5.70;;;;;;;13.50;49.89;99216.22;1730080;80;21435;-54
2022/04/15 21:55:02;;;;;;;9.20;5.92;;;;;;;13.46;50.18;99216.03;1731228;80;21054;-55
2022/04/15 21:57:29;;;;;;;7.45;5.22;;;;;;;13.41;50.32;99211.92;1731103;81;21042;-55
2022/04/15 21:59:56;;;;;;;7.92;5.30;;;;;;;13.38;50.44;99215.69;1729897;80;21053;-54
2022/04/15 22:02:22;;;;;;;13.93;6.55;;;;;;;13.36;50.53;99214.92;1723697;80;21046;-54
2022/04/15 22:04:51;;;;;;;8.45;5.00;;;;;;;13.35;50.73;99215.05;1644832;85;21890;-54
2022/04/15 22:07:18;;;;;;;7.90;5.28;;;;;;;13.33;51.03;99213.80;1668078;83;21059;-53
2022/04/15 22:09:47;;;;;;;9.25;6.20;;;;;;;13.33;51.21;99214.28;1669148;83;21084;-54
2022/04/15 22:12:16;;;;;;;13.65;6.00;;;;;;;13.29;51.47;99219.02;1729289;81;21074;-54
2022/04/15 22:14:46;;;;;;;10.60;5.47;;;;;;;13.28;51.54;99223.17;1734144;81;21324;-54
2022/04/15 22:17:16;;;;;;;8.30;5.95;;;;;;;13.24;51.81;99213.07;1727058;81;21647;-54
2022/04/15 22:19:50;;;;;;;10.53;6.30;;;;;;;13.20;51.93;99220.98;1695599;82;20982;-54
2022/04/15 22:22:17;;;;;;;13.90;6.58;;;;;;;13.15;52.09;99224.50;1672302;84;21142;-54
2022/04/15 22:24:45;;;;;;;7.20;5.70;;;;;;;13.11;52.21;99224.27;1728478;81;21053;-55
2022/04/15 22:27:12;;;;;;;10.32;7.35;;;;;;;13.07;52.43;99223.63;1703431;82;20934;-55
2022/04/15 22:29:42;;;;;;;9.45;6.33;;;;;;;13.04;52.56;99229.70;1736253;80;21488;-55
2022/04/15 22:32:11;;;;;;;10.50;6.80;;;;;;;13.01;52.72;99222.69;1737749;80;20939;-55
2022/04/15 22:34:40;;;;;;;9.88;6.47;;;;;;;12.98;52.90;99223.37;1736981;80;21052;-54
2022/04/15 22:37:08;;;;;;;9.55;6.45;;;;;;;12.94;53.09;99219.12;1735021;81;21082;-54
2022/04/15 22:39:38;;;;;;;11.93;6.83;;;;;;;12.91;53.27;99217.99;1738029;80;21548;-54
2022/04/15 22:42:05;;;;;;;11.12;7.15;;;;;;;12.89;53.45;99219.44;1739167;81;21555;-54
2022/04/15 22:44:36;;;;;;;10.28;5.97;;;;;;;12.88;53.65;99211.81;1701941;82;21414;-54
2022/04/15 22:47:18;;;;;;;12.13;6.73;;;;;;;12.88;53.90;99210.95;1733495;81;21578;-54
2022/04/15 22:49:36;;;;;;;8.88;6.05;;;;;;;12.86;54.09;99215.09;1731273;81;21054;-54
2022/04/15 22:52:06;;;;;;;15.75;5.95;;;;;;;12.86;54.38;99209.70;1740088;81;21631;-54
2022/04/15 22:57:17;;;;;;;8.93;5.58;;;;;;;12.83;54.74;99201.81;1738434;81;21097;-53
2022/04/15 22:59:43;;;;;;;6.60;5.47;;;;;;;12.82;55.01;99204.12;1738577;81;21081;-54
2022/04/15 23:02:10;;;;;;;7.10;5.40;;;;;;;12.80;55.24;99195.25;1735998;81;21116;-54
2022/04/15 23:04:38;;;;;;;8.83;4.75;;;;;;;12.79;55.44;99199.40;1702494;83;21475;-54
2022/04/15 23:07:05;;;;;;;11.90;5.42;;;;;;;12.79;55.57;99207.02;1700697;82;21614;-54
2022/04/15 23:09:34;;;;;;;8.08;5.08;;;;;;;12.80;55.68;99202.01;1702217;82;21109;-54
2022/04/15 23:12:03;;;;;;;8.55;5.33;;;;;;;12.80;55.75;99200.66;1679551;83;21571;-54
2022/04/15 23:14:30;;;;;;;12.20;5.17;;;;;;;12.83;55.82;99188.80;1672007;83;20914;-54
2022/04/15 23:17:00;;;;;;;8.08;5.75;;;;;;;12.83;55.85;99184.27;1737865;80;21353;-54
2022/04/15 23:19:29;;;;;;;7.47;4.45;;;;;;;12.84;55.89;99181.91;1737421;80;21135;-54
2022/04/15 23:22:02;;;;;;;8.80;5.60;;;;;;;12.84;56.00;99212.14;1738774;81;21567;-54
2022/04/15 23:24:30;;;;;;;7.45;5.30;;;;;;;12.79;56.08;99190.81;1736083;80;21065;-54
2022/04/15 23:26:57;;;;;;;6.35;5.20;;;;;;;12.79;56.20;99198.92;1736575;80;21382;-54
2022/04/15 23:29:24;;;;;;;5.10;4.03;;;;;;;12.77;56.35;99182.42;1735556;80;22409;-54
2022/04/15 23:31:51;;;;;;;5.25;3.42;;;;;;;12.73;56.57;99179.56;1730916;81;21849;-54
2022/04/15 23:34:18;;;;;;;9.70;5.70;;;;;;;12.71;56.83;99183.70;1729241;81;21050;-54
2022/04/15 23:36:44;;;;;;;9.55;5.80;;;;;;;12.69;57.11;99186.98;1726996;81;21074;-54
2022/04/15 23:39:12;;;;;;;5.55;4.40;;;;;;;12.69;57.33;99195.56;1732400;80;21101;-53
2022/04/15 23:41:38;;;;;;;5.42;3.70;;;;;;;12.66;57.61;99192.61;1727749;80;21047;-54
2022/04/15 23:44:05;;;;;;;6.30;4.33;;;;;;;12.65;57.84;99185.95;1731701;80;21651;-54
2022/04/15 23:49:17;;;;;;;5.55;4.05;;;;;;;12.63;58.36;99171.67;1730357;81;21543;-54
2022/04/15 23:51:44;;;;;;;5.00;4.17;;;;;;;12.62;58.51;99187.01;1732092;80;22219;-54
2022/04/15 23:54:16;;;;;;;6.58;4.25;;;;;;;12.61;58.78;99198.77;1729620;80;21063;-53
2022/04/15 23:56:39;;;;;;;6.55;3.60;;;;;;;12.60;58.99;99206.96;1730479;81;22441;-53
2022/04/15 23:59:06;;;;;;;5.78;4.25;;;;;;;12.59;59.14;99210.66;1728938;80;21096;-54
